Sunray, Texas
Current Conditions -  °F | °C
As of 5:51 PM on Wednesday 26 Nov 2014 (Local Time) from KBGD Reporting Station
Clear Clear  
Wind Chill:   Ceiling: Unl
Heat Index:   Visibility: 10mi
Dew Point: -6°   Wind: 6mph
Humidity: 36%   Direction: 40°NE
Pressure: 30.3"   Gusts: NA
Location:  36.02°N, 101.82°W
Report Text: KBGD 262351Z AUTO 04005KT 10SM CLR 08/M06 A3030 RMK AO2 SLP261 T00831061 10111 20083 53008
Loading
Personal Weather Stations






























Interactive Weather Map New forecast layout! Learn more

10-Day Weather Forecast

Advertisements
Track Severe Weather on mobile